Tiempo atmosférico en la estación meteorológica de Astorga, León (919 m.)



Fecha
DESCASC
Temp. máxima en grados centígrados (hora)
DESCASC
Temp. mínima en grados centígrados (hora)
DESCASC
Temp. media en grados centígrados
DESCASC
Racha de viento máxima en m/sg (hora)
DESCASC
Velocidad máxima media en intervalos de 10 minutos(hora)
DESCASC
Precipitaciones diarias en mm
DESCASC
Precipitaciones de 00:00 a 06:00 en mm
DESCASC
Precipitaciones de 06:00 a 12:00 en mm
DESCASC
Precipitaciones de 12:00 a 18:00 en mm
DESCASC
Precipitaciones de 18:00 a 24:00 en mm
DESCASC
18-01-2018 17.4 (15:20) -1.3 (08:10) 8 8.33 (20:50) 4.72 (21:50) 0 0 0 0 0
17-01-2018 14.3 (16:10) 1.3 (22:30) 7.8 12.22 (05:00) 6.67 (11:30) 0 0 0 0 0
16-01-2018 15.1 (15:10) 6.7 (00:50) 10.9 12.5 (16:00) 6.67 (16:00) 0 0 0 0 0
15-01-2018 8 (15:40) -4.5 (07:00) 1.8 10.28 (15:20) 5.83 (15:20) 0 0 0 0 0
14-01-2018 8.8 (15:30) -1.8 (-00:0) 3.5 6.11 (11:20) 3.89 (12:50) 0 0 0 0 0
13-01-2018 6.5 (16:40) -0.9 (-00:0) 2.8 5.28 (20:50) 3.06 (21:00) 6 1.2 4.6 0.2 0
12-01-2018 3.9 (14:30) -2.4 (-00:0) 0.8 3.89 (04:30) 2.78 (05:00) 0 0 0 0 0
11-01-2018 6.9 (15:20) 0.3 (00:00) 3.6 15 (14:40) 7.5 (14:40) 2.4 1.8 0.6 0 0
10-01-2018 7.1 (14:40) -0.5 (-00:0) 3.3 13.89 (15:00) 7.5 (15:00) 6.4 0.8 0.6 3.6 1.4
09-01-2018 2.2 (14:50) -2.1 (-00:0) 0.1 4.72 (17:40) 3.61 (20:10) 1.6 0 0.2 1.2 0.2
08-01-2018 9.3 (14:50) -3.8 (-00:0) 2.8 4.72 (17:10) 3.33 (17:00) 0.2 0.2 0 0 0
07-01-2018 9.1 (14:20) 0 (00:00) 4.6 11.39 (19:00) 6.94 (19:00) 0.8 0 0 0 0.8
06-01-2018 6.2 (14:50) -0.3 (00:00) 2.9 9.44 (05:40) 5.83 (15:10) 0 0 0 0 0
05-01-2018 8.5 (04:20) 1.8 (00:00) 5.1 12.22 (05:30) 8.89 (05:30) 1.8 0 1.8 0 0
04-01-2018 14.7 (14:30) 6.7 (23:59) 10.7 13.89 (06:10) 7.78 (06:30) 0 0 0 0 0
03-01-2018 16.1 (15:10) 11.2 (00:00) 13.7 11.94 (04:20) 6.67 (18:30) 0 0 0 0 0
02-01-2018 13.6 (15:50) 6.5 (00:00) 10.1 11.39 (00:20) 6.11 (22:30) 1.4 0.2 0.6 0.6 0
01-01-2018 11.4 (14:10) 3.7 (00:00) 7.5 21.94 (12:30) 12.78 (13:10) 0 0 0 0 0
31-12-2017 9.9 (11:20) 0.7 (00:00) 5.3 14.72 (17:20) 8.89 (17:20) 3.2 0 0 3.2 0
30-12-2017 15.9 (15:50) 3.8 (00:00) 9.8 11.94 (08:10) 6.39 (08:10) 0 0 0 0 0
29-12-2017 14.9 (12:10) 6.2 (00:00) 10.5 14.17 (13:10) 7.78 (13:00) 0.8 0 0.8 0 0
28-12-2017 12.3 (12:20) 3.2 (00:00) 7.8 20.28 (15:50) 11.39 (16:00) 1 0 0.8 0.2 0
27-12-2017 6.4 (11:50) 2.3 (00:00) 4.4 19.44 (00:50) 10 (00:50) 2.4 1.8 0.4 0 0.2
26-12-2017 7.7 (22:10) 1 (00:00) 4.3 18.89 (22:40) 10.56 (22:10) 9 0 0 1 8
25-12-2017 5.1 (19:20) -0.7 (-00:0) 2.2 10 (18:10) 7.5 (18:10) 1.8 0 0 0 1.8
24-12-2017 11 (15:20) -2.8 (-00:0) 4.1 3.89 (14:10) 2.5 (22:20) 0 0 0 0 0

Gráficas

Temp. máximas Temp. mínimas Temp. medias Precipitaciones Rachas de viento máximas Velocidades máximas media en intervalos de 10 minutos

Datos horarios

Fecha y hora oficial Temperatura (ºC) Velocidad del viento (km/h) Dirección del viento Racha (km/h) Dirección de racha Precipitación (mm) Presión (hPa) Tendencia (hPa) Humedad (%)
2018-01-22 23:00:00 3.9 6 Sur 9 Sur 0 -- -- 99
2018-01-22 22:00:00 4.3 3 Sur 8 Sudoeste 0 -- -- 99
2018-01-22 21:00:00 4.4 4 Sudeste 8 Sudeste 0 -- -- 98
2018-01-22 20:00:00 4.5 5 Sudeste 9 Sudeste 0 -- -- 98
2018-01-22 19:00:00 4.8 5 Sur 12 Sudeste 0 -- -- 97
2018-01-22 18:00:00 5.6 9 Sur 14 Sudeste 0 -- -- 91
2018-01-22 17:00:00 9.2 12 Sur 17 Sudeste 0 -- -- 79
2018-01-22 16:00:00 12.4 8 Este 15 Sudeste 0 -- -- 67
2018-01-22 15:00:00 10.8 8 Sudeste 20 Sudeste 0 -- -- 71
2018-01-22 14:00:00 14.4 5 Este 18 Sur 0 -- -- 56
2018-01-22 13:00:00 13.7 9 Oeste 17 Noroeste 0 -- -- 57
2018-01-22 12:00:00 11.7 10 Oeste 23 Oeste 0 -- -- 64
2018-01-22 11:00:00 10.6 8 Oeste 27 Oeste 0 -- -- 71
2018-01-22 10:00:00 8.7 7 Noroeste 12 Norte 0 -- -- 77
2018-01-22 09:00:00 4.7 4 Norte 11 Norte 0 -- -- 92
2018-01-22 08:00:00 5.7 7 Norte 14 Noroeste 0 -- -- 86
2018-01-22 07:00:00 5.2 4 Norte 13 Oeste 0 -- -- 87
2018-01-22 06:00:00 5.5 8 Oeste 12 Oeste 0 -- -- 89
2018-01-22 05:00:00 6.2 8 Oeste 19 Oeste 0 -- -- 86
2018-01-22 04:00:00 6.8 12 Oeste 17 Oeste 0 -- -- 86
2018-01-22 03:00:00 6.2 3 Oeste 9 Noroeste 0 -- -- 91
2018-01-22 02:00:00 6.3 4 Noroeste 15 Oeste 0 -- -- 90
2018-01-22 01:00:00 6.7 8 Noroeste 15 Noroeste 0 -- -- 88
2018-01-22 00:00:00 5.8 0 Calma 8 Norte 0 -- -- 91
2018-01-21 23:00:00 6.9 3 Noroeste 14 Oeste 0 -- -- 87
2018-01-21 22:00:00 6.9 4 Norte 23 Oeste 0 -- -- 86
2018-01-21 21:00:00 7.8 12 Noroeste 24 Noroeste 0 -- -- 82
2018-01-21 20:00:00 8.2 11 Noroeste 19 Noroeste 0 -- -- 79
2018-01-21 19:00:00 8.2 9 Oeste 22 Oeste 0 -- -- 79
2018-01-21 18:00:00 11.5 7 Noroeste 26 Noroeste 0 -- -- 66
2018-01-21 17:00:00 12.8 17 Noroeste 26 Noroeste 0 -- -- 64
2018-01-21 16:00:00 13.1 18 Noroeste 29 Noroeste 0 -- -- 62
2018-01-21 15:00:00 13.9 13 Noroeste 23 Noroeste 0 -- -- 62
2018-01-21 14:00:00 13.7 15 Noroeste 26 Noroeste 0 -- -- 62
2018-01-21 13:00:00 13.4 13 Noroeste 27 Noroeste 0 -- -- 64
2018-01-21 12:00:00 12 17 Noroeste 30 Noroeste 0 -- -- 68
2018-01-21 11:00:00 11.6 12 Noroeste 29 Noroeste 0 -- -- 70
2018-01-21 10:00:00 10.4 10 Noroeste 19 Noroeste 0 -- -- 74
2018-01-21 09:00:00 7 10 Noroeste 18 Noroeste 0 -- -- 86
2018-01-21 08:00:00 6.9 11 Norte 19 Norte 0 -- -- 87
2018-01-21 07:00:00 7.5 7 Noroeste 17 Oeste 0 -- -- 85
2018-01-21 06:00:00 7.7 9 Oeste 14 Oeste 0 -- -- 87
2018-01-21 05:00:00 7.6 3 Este 25 Noroeste 0 -- -- 88
2018-01-21 04:00:00 7.9 15 Noroeste 35 Noroeste 0 -- -- 85
2018-01-21 03:00:00 7.4 13 Noroeste 31 Noroeste 0 -- -- 85
2018-01-21 02:00:00 7.8 14 Noroeste 23 Oeste 0 -- -- 86
2018-01-21 01:00:00 7.9 14 Oeste 21 Sudoeste 0 -- -- 86
2018-01-21 00:00:00 8 11 Sudoeste 21 Sudoeste 0 -- -- 86
2018-01-20 23:00:00 8 5 Sudoeste 14 Sudeste 0 -- -- 86
2018-01-20 22:00:00 7 7 Sur 23 Noroeste 0 -- -- 88
2018-01-20 21:00:00 7.5 7 Sudeste 17 Sudeste 0 -- -- 87
2018-01-20 20:00:00 7.8 5 Oeste 19 Noroeste 0 -- -- 84
2018-01-20 19:00:00 7.9 12 Noroeste 29 Noroeste 0 -- -- 83
2018-01-20 18:00:00 9 15 Noroeste 35 Noroeste 0 -- -- 79
2018-01-20 17:00:00 8.4 13 Noroeste 30 Noroeste 0 -- -- 81
2018-01-20 16:00:00 8.6 8 Norte 30 Noroeste 0 -- -- 80
2018-01-20 15:00:00 8.4 17 Noroeste 37 Noroeste 0 -- -- 80
2018-01-20 14:00:00 8.4 22 Noroeste 47 Noroeste 0 -- -- 79
2018-01-20 13:00:00 9.8 23 Noroeste 40 Noroeste 0 -- -- 74
2018-01-20 12:00:00 8.8 13 Noroeste 28 Noroeste 0 -- -- 74
2018-01-20 11:00:00 9.1 16 Noroeste 35 Oeste 0 -- -- 67
2018-01-20 10:00:00 6.1 17 Noroeste 35 Oeste 0 -- -- 71
2018-01-20 09:00:00 6.2 13 Noroeste 26 Noroeste 0 -- -- 65
2018-01-20 08:00:00 2.7 8 Nordeste 15 Nordeste 0 -- -- 75
2018-01-20 07:00:00 1.8 6 Norte 13 Este 0 -- -- 82
2018-01-20 06:00:00 2.7 4 Nordeste 21 Nordeste 0 -- -- 77
2018-01-20 05:00:00 3.3 8 Nordeste 20 Oeste 0 -- -- 76
2018-01-20 04:00:00 5.6 14 Noroeste 30 Noroeste 0 -- -- 60
2018-01-20 03:00:00 3.6 8 Noroeste 20 Oeste 0 -- -- 78
2018-01-20 02:00:00 3.5 9 Noroeste 14 Noroeste 0 -- -- 81
2018-01-20 01:00:00 2.9 6 Nordeste 26 Noroeste 0 -- -- 83
2018-01-20 00:00:00 3.8 11 Noroeste 24 Noroeste 0 -- -- 80
2018-01-19 23:00:00 3.3 10 Norte 15 Noroeste 0 -- -- 84
2018-01-19 22:00:00 3.8 3 Nordeste 10 Nordeste 0 -- -- 81
2018-01-19 21:00:00 4 5 Este 12 Noroeste 0 -- -- 76
2018-01-19 20:00:00 4.2 7 Norte 15 Noroeste 0 -- -- 75
2018-01-19 19:00:00 6.7 10 Noroeste 22 Noroeste 0 -- -- 64
2018-01-19 18:00:00 9.4 12 Noroeste 26 Noroeste 0 -- -- 55
2018-01-19 17:00:00 11.2 12 Noroeste 25 Noroeste 0 -- -- 53
2018-01-19 16:00:00 12.6 14 Noroeste 31 Noroeste 0 -- -- 53
2018-01-19 15:00:00 12.4 17 Noroeste 35 Noroeste 0 -- -- 56
2018-01-19 14:00:00 11.9 19 Noroeste 36 Noroeste 0 -- -- 57
2018-01-19 13:00:00 12.1 14 Oeste 31 Noroeste 0 -- -- 61
2018-01-19 12:00:00 12.3 13 Oeste 29 Noroeste 0 -- -- 60
2018-01-19 11:00:00 10.4 8 Oeste 21 Oeste 0 -- -- 71
2018-01-19 10:00:00 6.7 6 Este 20 Noroeste 0 -- -- 83
2018-01-19 09:00:00 3.8 6 Oeste 11 Oeste 0 -- -- 98
2018-01-19 08:00:00 2.2 5 Nordeste 9 Nordeste 0 -- -- 99
2018-01-19 07:00:00 2.6 6 Nordeste 9 Nordeste 0 -- -- 97
2018-01-19 06:00:00 2.9 7 Norte 14 Nordeste 0 -- -- 97
2018-01-19 05:00:00 3.3 3 Sudeste 17 Norte 0 -- -- 96
2018-01-19 04:00:00 2.8 13 Norte 19 Oeste 0 -- -- 96
2018-01-19 03:00:00 3.6 8 Noroeste 12 Norte 0 -- -- 94
2018-01-19 02:00:00 4.1 4 Sudeste 19 Oeste 0 -- -- 89
2018-01-19 01:00:00 4.4 5 Oeste 22 Noroeste 0 -- -- 87
2018-01-19 00:00:00 5.2 4 Nordeste 20 Noroeste 0 -- -- 82
2018-01-18 23:00:00 5.7 6 Oeste 24 Noroeste 0 -- -- 80
2018-01-18 22:00:00 7.2 17 Noroeste 30 Noroeste 0 -- -- 73
2018-01-18 21:00:00 7.6 14 Noroeste 30 Noroeste 0 -- -- 71
2018-01-18 20:00:00 9 16 Noroeste 26 Noroeste 0 -- -- 63
2018-01-18 19:00:00 10 16 Noroeste 26 Oeste 0 -- -- 61
2018-01-18 18:00:00 12.6 12 Oeste 26 Oeste 0 -- -- 53
2018-01-18 17:00:00 14.9 14 Oeste 25 Sudoeste 0 -- -- 46
2018-01-18 16:00:00 16.3 10 Oeste 25 Oeste 0 -- -- 45
2018-01-18 15:00:00 14.4 6 Sudeste 10 Sur 0 -- -- 51
2018-01-18 14:00:00 12.4 5 Sur 10 Sur 0 -- -- 53
2018-01-18 13:00:00 10.5 3 Sur 10 Sur 0 -- -- 58
2018-01-18 12:00:00 8.7 4 Sur 9 Sur 0 -- -- 64
2018-01-18 11:00:00 9.2 0 Calma 9 Norte 0 -- -- 60
2018-01-18 10:00:00 4.5 6 Norte 9 Nordeste 0 -- -- 78
2018-01-18 09:00:00 0.4 8 Nordeste 8 Nordeste 0 -- -- 94
2018-01-18 08:00:00 -1 4 Nordeste 8 Sudoeste 0 -- -- 89
2018-01-18 07:00:00 -0.5 2 Sudoeste 9 Sudoeste 0 -- -- 93
2018-01-18 06:00:00 -0.5 4 Oeste 16 Norte 0 -- -- 89
2018-01-18 05:00:00 1.4 8 Noroeste 11 Noroeste 0 -- -- 83
2018-01-18 04:00:00 0.8 4 Noroeste 7 Sudoeste 0 -- -- 89
2018-01-18 03:00:00 0.5 0 Calma 8 Norte 0 -- -- 88
2018-01-18 02:00:00 0.8 8 Norte 10 Norte 0 -- -- 84
2018-01-18 01:00:00 0.9 4 Norte 6 Nordeste 0 -- -- 84
2018-01-18 00:00:00 1.9 4 Sur 5 Sur 0 -- -- 80
2018-01-17 23:00:00 1.8 4 Norte 7 Norte 0 -- -- 78
2018-01-17 22:00:00 2.2 0 Calma 5 Norte 0 -- -- 79
2018-01-17 21:00:00 2.8 6 Noroeste 14 Noroeste 0 -- -- 78
2018-01-17 20:00:00 4.9 8 Oeste 16 Oeste 0 -- -- 70
2018-01-17 19:00:00 5.3 6 Noroeste 13 Norte 0 -- -- 68
2018-01-17 18:00:00 10.1 8 Noroeste 16 Oeste 0 -- -- 52
2018-01-17 17:00:00 12.5 10 Oeste 20 Oeste 0 -- -- 43
2018-01-17 16:00:00 13.8 9 Noroeste 21 Oeste 0 -- -- 40
2018-01-17 15:00:00 14.1 6 Noroeste 18 Norte 0 -- -- 41
2018-01-17 14:00:00 12.6 6 Noroeste 26 Norte 0 -- -- 47
2018-01-17 13:00:00 10.8 12 Noroeste 28 Noroeste 0 -- -- 53
2018-01-17 12:00:00 9 19 Noroeste 36 Noroeste 0 -- -- 60
2018-01-17 11:00:00 8.1 20 Noroeste 36 Noroeste 0 -- -- 62
2018-01-17 10:00:00 6.4 13 Noroeste 27 Noroeste 0 -- -- 73
2018-01-17 09:00:00 4.2 14 Noroeste 29 Oeste 0 -- -- 80
2018-01-17 08:00:00 4.8 12 Oeste 28 Oeste 0 -- -- 80
2018-01-17 07:00:00 5.3 13 Noroeste 31 Noroeste 0 -- -- 78
2018-01-17 06:00:00 6.1 20 Oeste 37 Noroeste 0 -- -- 76
2018-01-17 05:00:00 6.3 23 Noroeste 44 Oeste 0 -- -- 73
2018-01-17 04:00:00 7.3 17 Noroeste 36 Oeste 0 -- -- 80
2018-01-17 03:00:00 7.9 20 Noroeste 42 Oeste 0 -- -- 76
2018-01-17 02:00:00 8.8 21 Noroeste 40 Oeste 0 -- -- 78
2018-01-17 01:00:00 9.2 23 Noroeste 41 Oeste 0 -- -- 79
2018-01-17 00:00:00 9.2 20 Noroeste 44 Oeste 0 -- -- 81
2018-01-16 23:00:00 9.4 23 Noroeste 40 Oeste 0 -- -- 82
2018-01-16 22:00:00 9.6 19 Noroeste 37 Noroeste 0 -- -- 82
2018-01-16 21:00:00 9.7 17 Noroeste 36 Noroeste 0 -- -- 82
2018-01-16 20:00:00 9.8 15 Noroeste 32 Oeste 0 -- -- 81
2018-01-16 19:00:00 9.4 14 Oeste 28 Oeste 0 -- -- 82
2018-01-16 18:00:00 10.5 15 Oeste 33 Oeste 0 -- -- 77
2018-01-16 17:00:00 12.8 20 Oeste 42 Oeste 0 -- -- 70
2018-01-16 16:00:00 12.7 24 Noroeste 45 Noroeste 0 -- -- 69
2018-01-16 15:00:00 14.9 12 Noroeste 34 Noroeste 0 -- -- 65
2018-01-16 14:00:00 12.8 14 Noroeste 28 Oeste 0 -- -- 72
2018-01-16 13:00:00 12.2 8 Noroeste 32 Oeste 0 -- -- 74
2018-01-16 12:00:00 10.5 17 Oeste 28 Oeste 0 -- -- 81
2018-01-16 11:00:00 9.5 12 Oeste 25 Oeste 0 -- -- 86
2018-01-16 10:00:00 8.6 8 Oeste 17 Oeste 0 -- -- 88
2018-01-16 09:00:00 7.8 8 Oeste 21 Oeste 0 -- -- 88
2018-01-16 08:00:00 8.1 4 Sudoeste 15 Oeste 0 -- -- 87
2018-01-16 07:00:00 8.3 9 Oeste 23 Oeste 0 -- -- 88
2018-01-16 06:00:00 8.6 9 Oeste 24 Oeste 0 -- -- 87
2018-01-16 05:00:00 8.1 8 Oeste 30 Oeste 0 -- -- 91
2018-01-16 04:00:00 8.2 13 Noroeste 32 Noroeste 0 -- -- 89
2018-01-16 03:00:00 7.9 14 Oeste 31 Noroeste 0 -- -- 89
2018-01-16 02:00:00 7.8 15 Noroeste 27 Oeste 0 -- -- 89
2018-01-16 01:00:00 6.8 8 Noroeste 36 Sudoeste 0 -- -- 93
2018-01-16 00:00:00 6.9 9 Sudoeste 23 Sudoeste 0 -- -- 87
2018-01-15 23:00:00 6.6 9 Sudoeste 22 Oeste 0 -- -- 87
2018-01-15 22:00:00 5.7 9 Oeste 23 Oeste 0 -- -- 88
2018-01-15 21:00:00 4.4 7 Noroeste 28 Oeste 0 -- -- 85
2018-01-15 20:00:00 5.6 16 Oeste 30 Oeste 0 -- -- 84
2018-01-15 19:00:00 4.9 11 Oeste 28 Oeste 0 -- -- 82
2018-01-15 18:00:00 5.1 18 Oeste 32 Oeste 0 -- -- 72
2018-01-15 17:00:00 5.4 13 Noroeste 31 Noroeste 0 -- -- 59
2018-01-15 16:00:00 7.6 13 Noroeste 37 Oeste 0 -- -- 49
2018-01-15 15:00:00 5.8 6 Sudoeste 19 Oeste 0 -- -- 60
2018-01-15 14:00:00 2.5 3 Sur 12 Sudeste 0 -- -- 79
2018-01-15 13:00:00 2.4 3 Sur 8 Sur 0 -- -- 81
2018-01-15 12:00:00 1 4 Sur 8 Sur 0 -- -- 85
2018-01-15 11:00:00 1.8 3 Sur 8 Sur 0 -- -- 79
2018-01-15 10:00:00 -2.9 3 Sudoeste 8 Noroeste 0 -- -- 97
2018-01-15 09:00:00 -3.5 5 Norte 6 Nordeste 0 -- -- 98
2018-01-15 08:00:00 -4.1 4 Norte 6 Norte 0 -- -- 97
2018-01-15 07:00:00 -4.5 4 Nordeste 6 Nordeste 0 -- -- 97
2018-01-15 06:00:00 -4 0 Calma 5 Oeste 0 -- -- 98
2018-01-15 05:00:00 -3 5 Sudoeste 8 Oeste 0 -- -- 98
2018-01-15 04:00:00 -3.9 3 Oeste 6 Norte 0 -- -- 97
2018-01-15 03:00:00 -2.3 3 Nordeste 7 Norte 0 -- -- 98
2018-01-15 02:00:00 -2 5 Norte 7 Nordeste 0 -- -- 99
2018-01-15 01:00:00 -2.8 3 Oeste 8 Norte 0 -- -- 96
2018-01-15 00:00:00 -0.6 4 Oeste 7 Oeste 0 -- -- 92
2018-01-14 23:00:00 -0.8 5 Noroeste 13 Norte 0 -- -- 96
2018-01-14 22:00:00 -0.6 5 Norte 9 Noroeste 0 -- -- 94
2018-01-14 21:00:00 -0.2 7 Norte 20 Norte 0 -- -- 92
2018-01-14 20:00:00 2.3 14 Noroeste 22 Noroeste 0 -- -- 81
2018-01-14 19:00:00 1.8 3 Noroeste 12 Noroeste 0 -- -- 84
2018-01-14 18:00:00 4.8 9 Noroeste 17 Oeste 0 -- -- 70
2018-01-14 17:00:00 7.1 8 Noroeste 18 Noroeste 0 -- -- 61
2018-01-14 16:00:00 6.4 10 Noroeste 18 Noroeste 0 -- -- 65
2018-01-14 15:00:00 8.3 11 Norte 21 Noroeste 0 -- -- 58
2018-01-14 14:00:00 6.8 12 Noroeste 21 Noroeste 0 -- -- 67
2018-01-14 13:00:00 6.1 12 Noroeste 22 Noroeste 0 -- -- 70
2018-01-14 12:00:00 5.4 11 Noroeste 22 Noroeste 0 -- -- 71
2018-01-14 11:00:00 3.9 12 Noroeste 19 Noroeste 0 -- -- 79
2018-01-14 10:00:00 2.6 10 Noroeste 16 Oeste 0 -- -- 82
2018-01-14 09:00:00 -1.3 7 Nordeste 10 Nordeste 0 -- -- 95
2018-01-14 08:00:00 -1.4 5 Norte 12 Noroeste 0 -- -- 95
2018-01-14 07:00:00 0.3 10 Noroeste 17 Noroeste 0 -- -- 92
2018-01-14 06:00:00 -1.2 10 Norte 13 Norte 0 -- -- 98
2018-01-14 05:00:00 -1.4 11 Noroeste 17 Norte 0 -- -- 96
2018-01-14 04:00:00 -1.3 6 Norte 15 Noroeste 0 -- -- 93
2018-01-14 03:00:00 1 10 Noroeste 20 Noroeste 0 -- -- 86
2018-01-14 02:00:00 0.9 12 Noroeste 19 Noroeste 0 -- -- 86
2018-01-14 01:00:00 0.5 6 Norte 19 Noroeste 0 -- -- 94
2018-01-14 00:00:00 0 8 Noroeste 15 Noroeste 0 -- -- 98
2018-01-13 23:00:00 0.1 4 Sudoeste 10 Noroeste 0 -- -- 96
2018-01-13 22:00:00 0.1 7 Norte 14 Oeste 0 -- -- 95
2018-01-13 21:00:00 1.4 11 Oeste 19 Noroeste 0 -- -- 92
2018-01-13 20:00:00 0.7 7 Noroeste 10 Nordeste 0 -- -- 97
2018-01-13 19:00:00 1 7 Noroeste 11 Noroeste 0 -- -- 96
2018-01-13 18:00:00 2.5 10 Noroeste 17 Noroeste 0 -- -- 90
2018-01-13 17:00:00 4.3 9 Sudoeste 19 Sudoeste 0 -- -- 86
2018-01-13 16:00:00 4 7 Nordeste 8 Nordeste 0 -- -- 95
2018-01-13 15:00:00 2.1 4 Norte 9 Norte 0 -- -- 97
2018-01-13 14:00:00 1.4 6 Norte 9 Norte 0 -- -- 98
2018-01-13 13:00:00 1.4 5 Norte 8 Nordeste 0.2 -- -- 97
2018-01-13 12:00:00 1 7 Norte 10 Norte 0.8 -- -- 98
2018-01-13 11:00:00 0.2 5 Norte 6 Norte 1.2 -- -- 99
2018-01-13 10:00:00 0 3 Norte 4 Norte 0.8 -- -- 100
2018-01-13 09:00:00 -0.1 2 Nordeste 5 Este 0.6 -- -- 100
2018-01-13 08:00:00 -0.1 3 Este 7 Este 0.8 -- -- 100
2018-01-13 07:00:00 -0.1 4 Este 8 Este 0.4 -- -- 100
2018-01-13 06:00:00 0 3 Sudeste 9 Este 1.2 -- -- 99
2018-01-13 05:00:00 0.7 6 Sudeste 9 Sudeste 0 -- -- 99
2018-01-13 04:00:00 0.8 4 Sudeste 10 Sudeste 0 -- -- 99
2018-01-13 03:00:00 0.8 5 Este 13 Sudeste 0 -- -- 99
2018-01-13 02:00:00 0.9 5 Este 11 Este 0 -- -- 99
2018-01-13 01:00:00 1 5 Sudeste 10 Este 0 -- -- 98
2018-01-13 00:00:00 1.1 5 Este 10 Este 0 -- -- 97
2018-01-12 23:00:00 1.3 5 Sudeste 10 Sudeste 0 -- -- 96
2018-01-12 22:00:00 1.6 5 Sudeste 12 Este 0 -- -- 96
2018-01-12 21:00:00 1.8 3 Sudeste 10 Este 0 -- -- 95
2018-01-12 20:00:00 1.8 3 Nordeste 7 Sudeste 0 -- -- 93
2018-01-12 19:00:00 1.9 4 Este 8 Sudeste 0 -- -- 91
2018-01-12 18:00:00 2.3 7 Sudeste 10 Sudeste 0 -- -- 87
2018-01-12 17:00:00 3.3 3 Sudoeste 8 Sur 0 -- -- 80
2018-01-12 16:00:00 3.5 7 Sur 13 Nordeste 0 -- -- 79
2018-01-12 15:00:00 3.7 3 Sudoeste 10 Sudeste 0 -- -- 79
2018-01-12 14:00:00 3.7 3 Este 8 Este 0 -- -- 77
2018-01-12 13:00:00 3 3 Nordeste 5 Sudeste 0 -- -- 80
2018-01-12 12:00:00 1.8 3 Sur 5 Sur 0 -- -- 83
2018-01-12 11:00:00 0.5 3 Sur 7 Norte 0 -- -- 89
2018-01-12 10:00:00 0.3 5 Nordeste 9 Norte 0 -- -- 86
2018-01-12 09:00:00 -2.4 7 Norte 9 Norte 0 -- -- 92
2018-01-12 08:00:00 -0.9 2 Oeste 13 Norte 0 -- -- 94
2018-01-12 07:00:00 -1.6 9 Norte 12 Norte 0 -- -- 97
2018-01-12 06:00:00 -1.2 6 Noroeste 11 Noroeste 0 -- -- 95
2018-01-12 05:00:00 -0.7 10 Norte 14 Norte 0 -- -- 97
2018-01-12 04:00:00 -0.6 2 Nordeste 13 Norte 0 -- -- 96
2018-01-12 03:00:00 0.9 5 Norte 11 Oeste 0 -- -- 92
2018-01-12 02:00:00 0.8 4 Norte 11 Sur 0 -- -- 92
2018-01-12 01:00:00 0.9 4 Noroeste 12 Este 0 -- -- 91
2018-01-12 00:00:00 1.4 7 Noroeste 19 Noroeste 0 -- -- 87
2018-01-11 23:00:00 2.3 13 Noroeste 23 Noroeste 0 -- -- 86
2018-01-11 22:00:00 2.5 8 Oeste 17 Noroeste 0 -- -- 83
2018-01-11 21:00:00 2.7 8 Oeste 26 Oeste 0 -- -- 82
2018-01-11 20:00:00 3.3 12 Oeste 34 Noroeste 0 -- -- 78
2018-01-11 19:00:00 3.2 15 Noroeste 40 Noroeste 0 -- -- 78
2018-01-11 18:00:00 3.3 19 Noroeste 47 Oeste 0 -- -- 79
2018-01-11 17:00:00 5.6 18 Oeste 36 Oeste 0 -- -- 70
2018-01-11 16:00:00 5 17 Noroeste 35 Noroeste 0 -- -- 68
2018-01-11 15:00:00 5.7 20 Noroeste 54 Noroeste 0 -- -- 68
2018-01-11 14:00:00 5.4 22 Noroeste 40 Oeste 0 -- -- 73
2018-01-11 13:00:00 4.6 23 Noroeste 41 Noroeste 0 -- -- 76
2018-01-11 12:00:00 4.7 13 Noroeste 41 Noroeste 0 -- -- 75
2018-01-11 11:00:00 3.1 19 Noroeste 40 Noroeste 0 -- -- 78
2018-01-11 10:00:00 2.4 13 Oeste 30 Oeste 0.2 -- -- 82
2018-01-11 09:00:00 0.5 12 Noroeste 36 Oeste 0 -- -- 92
2018-01-11 08:00:00 0.4 14 Noroeste 35 Noroeste 0 -- -- 96
2018-01-11 07:00:00 0.9 18 Noroeste 34 Noroeste 0.4 -- -- 88
2018-01-11 06:00:00 0.9 22 Oeste 44 Oeste 0 -- -- 93
2018-01-11 05:00:00 1.2 26 Oeste 48 Noroeste 0.4 -- -- 86
2018-01-11 04:00:00 1 14 Oeste 48 Oeste 0 -- -- 91
2018-01-11 03:00:00 0.7 15 Oeste 36 Noroeste 1.2 -- -- 96
2018-01-11 02:00:00 1.1 14 Oeste 24 Oeste 0.2 -- -- 95
2018-01-11 01:00:00 1.3 14 Oeste 36 Oeste 0 -- -- 89
2018-01-11 00:00:00 1.7 17 Oeste 34 Oeste 0 -- -- 91
2018-01-10 23:00:00 0.8 7 Sudoeste 27 Oeste 0.2 -- -- 96
2018-01-10 22:00:00 1.5 14 Noroeste 31 Oeste 0.2 -- -- 90
2018-01-10 21:00:00 0.5 8 Oeste 27 Noroeste 0.6 -- -- 97
2018-01-10 20:00:00 0.6 21 Noroeste 39 Oeste 0.4 -- -- 96
2018-01-10 19:00:00 1.7 14 Oeste 32 Noroeste 0 -- -- 85
2018-01-10 18:00:00 1.8 19 Oeste 42 Oeste 0.4 -- -- 85
2018-01-10 17:00:00 1.3 19 Noroeste 39 Oeste 0.6 -- -- 91
2018-01-10 16:00:00 3.7 15 Oeste 48 Oeste 1 -- -- 91
2018-01-10 15:00:00 6.8 27 Oeste 50 Oeste 0 -- -- 90
2018-01-10 14:00:00 5.3 9 Sudoeste 15 Sudoeste 0 -- -- 96
2018-01-10 13:00:00 1.3 6 Norte 10 Noroeste 1.6 -- -- 99
2018-01-10 12:00:00 0.5 8 Norte 11 Norte 0.6 -- -- 100
2018-01-10 11:00:00 -0.2 2 Sur 13 Sudeste 0 -- -- 100
2018-01-10 10:00:00 -0.2 3 Sur 11 Sudoeste 0 -- -- 100
2018-01-10 09:00:00 -0.2 4 Sudoeste 11 Sur 0 -- -- 100
2018-01-10 08:00:00 0.3 4 Sudoeste 12 Sur 0 -- -- 99
2018-01-10 07:00:00 0.7 5 Sudeste 10 Sudeste 0 -- -- 100
2018-01-10 06:00:00 0.6 7 Nordeste 13 Nordeste 0 -- -- 100
2018-01-10 05:00:00 1 6 Nordeste 12 Norte 0.2 -- -- 100
2018-01-10 04:00:00 1.4 9 Norte 12 Norte 0.2 -- -- 100
2018-01-10 03:00:00 1.2 2 Oeste 6 Sudoeste -- -- -- 99
2018-01-10 02:00:00 1.3 4 Sur 7 Sur 0 -- -- 99
2018-01-10 01:00:00 1.4 3 Nordeste 8 Norte 0.2 -- -- 99
2018-01-10 00:00:00 1.3 0 Calma 4 Sudeste 0 -- -- 99
2018-01-09 23:00:00 1.2 0 Calma 9 Este 0 -- -- 99
2018-01-09 22:00:00 1.1 7 Norte 13 Norte 0 -- -- 99
2018-01-09 21:00:00 1.1 10 Norte 16 Norte 0 -- -- 99
2018-01-09 20:00:00 1.1 11 Norte 14 Norte 0 -- -- 98
2018-01-09 19:00:00 1 9 Norte 15 Norte 0.2 -- -- 98
2018-01-09 18:00:00 1.1 12 Norte 17 Norte 0.2 -- -- 98
2018-01-09 17:00:00 1.4 13 Norte 16 Norte 0.2 -- -- 97
2018-01-09 16:00:00 1.2 11 Norte 15 Norte 0 -- -- 97
2018-01-09 15:00:00 2.1 4 Norte 7 Norte 0.2 -- -- 95
2018-01-09 14:00:00 1.4 3 Este 13 Sudeste 0 -- -- 98
2018-01-09 13:00:00 0.3 5 Sudeste 8 Sudeste 0.6 -- -- 98
2018-01-09 12:00:00 -0.5 6 Nordeste 11 Nordeste 0.2 -- -- 98
2018-01-09 11:00:00 -1.1 4 Este 8 Este 0 -- -- 98
2018-01-09 10:00:00 -1.6 3 Sudeste 9 Sudeste 0 -- -- 98
2018-01-09 09:00:00 -1.7 5 Este 11 Este 0 -- -- 98
2018-01-09 08:00:00 -1.6 6 Este 11 Este 0 -- -- 98
2018-01-09 07:00:00 -1.5 5 Este 9 Este 0 -- -- 97
2018-01-09 06:00:00 -1.2 3 Este 7 Nordeste 0 -- -- 97
2018-01-09 05:00:00 -1.2 5 Nordeste 12 Nordeste 0 -- -- 97
2018-01-09 04:00:00 -1.2 6 Nordeste 14 Nordeste 0 -- -- 97
2018-01-09 03:00:00 -1.6 12 Norte 15 Norte 0 -- -- 96
2018-01-09 02:00:00 -1.6 6 Norte 10 Norte 0 -- -- 95
2018-01-09 01:00:00 -1.7 2 Nordeste 7 Noroeste 0 -- -- 93
2018-01-09 00:00:00 -0.4 4 Norte 6 Norte 0 -- -- 91
2018-01-08 23:00:00 -0.5 3 Sudeste 7 Sur 0 -- -- 90
2018-01-08 22:00:00 0.6 4 Sur 10 Norte 0 -- -- 84
2018-01-08 21:00:00 1.6 9 Norte 11 Norte 0 -- -- 84
2018-01-08 20:00:00 2.1 3 Noroeste 7 Norte 0 -- -- 85
2018-01-08 19:00:00 3.4 4 Nordeste 12 Sur 0 -- -- 79
2018-01-08 18:00:00 5.3 8 Sur 17 Sur 0 -- -- 67
2018-01-08 17:00:00 8.2 12 Sur 16 Sur 0 -- -- 60
2018-01-08 16:00:00 8.2 10 Sudeste 15 Sudeste 0 -- -- 60
2018-01-08 15:00:00 8.9 6 Sur 13 Sur 0 -- -- 52
2018-01-08 14:00:00 7.5 6 Sur 12 Sudoeste 0 -- -- 57
2018-01-08 13:00:00 6.2 8 Sudeste 13 Sudeste 0 -- -- 67
2018-01-08 12:00:00 7.1 3 Sudeste 6 Sudeste 0 -- -- 66
2018-01-08 11:00:00 3.4 3 Sudoeste 6 Sudoeste 0 -- -- 76
2018-01-08 10:00:00 1 3 Sudoeste 15 Noroeste 0 -- -- 82
2018-01-08 09:00:00 -2.6 3 Sur 12 Noroeste 0 -- -- 96
2018-01-08 08:00:00 -3.6 7 Este 10 Este 0 -- -- 95
2018-01-08 07:00:00 -2.7 0 Calma 6 Nordeste 0 -- -- 96
2018-01-08 06:00:00 -1.9 2 Sur 9 Oeste 0 -- -- 94
2018-01-08 05:00:00 -1.5 6 Norte 13 Noroeste 0 -- -- 91
2018-01-08 04:00:00 0.7 6 Oeste 7 Oeste 0 -- -- 87
2018-01-08 03:00:00 -0.1 3 Sudoeste 10 Noroeste 0 -- -- 93
2018-01-08 02:00:00 -0.5 0 Calma 10 Noroeste 0.2 -- -- 96
2018-01-08 01:00:00 -0.2 7 Norte 12 Norte 0 -- -- 97
2018-01-08 00:00:00 0.2 6 Norte 10 Nordeste 0 -- -- 97
2018-01-07 23:00:00 0.6 5 Nordeste 12 Nordeste 0 -- -- 96
2018-01-07 22:00:00 1.3 7 Nordeste 11 Nordeste 0 -- -- 95
2018-01-07 21:00:00 2.6 3 Sudeste 13 Sudeste 0 -- -- 96
2018-01-07 20:00:00 2.2 7 Sudeste 26 Sudeste 0.6 -- -- 96
2018-01-07 19:00:00 4.1 25 Nordeste 41 Nordeste 0.2 -- -- 84
2018-01-07 18:00:00 5.5 16 Norte 25 Norte 0 -- -- 70
2018-01-07 17:00:00 6.1 17 Norte 26 Noroeste 0 -- -- 67
2018-01-07 16:00:00 6.7 15 Noroeste 28 Norte 0 -- -- 62
2018-01-07 15:00:00 6.8 16 Noroeste 36 Noroeste 0 -- -- 62
2018-01-07 14:00:00 8.7 22 Noroeste 36 Noroeste 0 -- -- 54
2018-01-07 13:00:00 7.9 19 Noroeste 36 Norte 0 -- -- 56
2018-01-07 12:00:00 5.7 18 Noroeste 37 Noroeste 0 -- -- 62
2018-01-07 11:00:00 3.7 17 Noroeste 30 Noroeste 0 -- -- 66
2018-01-07 10:00:00 2.1 17 Noroeste 30 Oeste 0 -- -- 74
2018-01-07 09:00:00 1.8 14 Noroeste 30 Noroeste 0 -- -- 72
2018-01-07 08:00:00 1.7 18 Noroeste 33 Noroeste 0 -- -- 74
2018-01-07 07:00:00 1.2 12 Noroeste 24 Noroeste 0 -- -- 74
2018-01-07 06:00:00 1.5 18 Noroeste 30 Noroeste 0 -- -- 74
2018-01-07 05:00:00 1.5 16 Noroeste 27 Noroeste 0 -- -- 74
2018-01-07 04:00:00 1.1 12 Noroeste 25 Oeste 0 -- -- 73
2018-01-07 03:00:00 0.4 10 Oeste 26 Oeste 0 -- -- 76
2018-01-07 02:00:00 0.6 14 Noroeste 26 Noroeste 0 -- -- 74
2018-01-07 01:00:00 0.3 12 Noroeste 26 Noroeste 0 -- -- 78
2018-01-07 00:00:00 0 9 Oeste 22 Noroeste 0 -- -- 78
2018-01-06 23:00:00 0.6 13 Noroeste 23 Noroeste 0 -- -- 76
2018-01-06 22:00:00 1.1 13 Noroeste 23 Noroeste 0 -- -- 74
2018-01-06 21:00:00 1 10 Noroeste 18 Noroeste 0 -- -- 73
2018-01-06 20:00:00 1.3 13 Noroeste 24 Noroeste 0 -- -- 72
2018-01-06 19:00:00 1.5 14 Noroeste 24 Norte 0 -- -- 71
2018-01-06 18:00:00 2.2 13 Noroeste 27 Noroeste 0 -- -- 71
2018-01-06 17:00:00 3.2 18 Noroeste 29 Norte 0 -- -- 68
2018-01-06 16:00:00 4 16 Noroeste 32 Norte 0 -- -- 65
2018-01-06 15:00:00 5.6 21 Norte 30 Noroeste 0 -- -- 56
2018-01-06 14:00:00 4.4 17 Noroeste 30 Noroeste 0 -- -- 62
2018-01-06 13:00:00 3.5 9 Noroeste 19 Noroeste 0 -- -- 62
2018-01-06 12:00:00 2.8 4 Norte 8 Nordeste 0 -- -- 65
2018-01-06 11:00:00 1.2 4 Sur 9 Sudeste 0 -- -- 74
2018-01-06 10:00:00 0.4 5 Nordeste 12 Noroeste 0 -- -- 72
2018-01-06 09:00:00 0 2 Noroeste 9 Noroeste 0 -- -- 74
2018-01-06 08:00:00 0.2 4 Oeste 22 Noroeste 0 -- -- 73
2018-01-06 07:00:00 0 10 Noroeste 24 Oeste 0 -- -- 78
2018-01-06 06:00:00 0.3 15 Noroeste 34 Noroeste 0 -- -- 78
2018-01-06 05:00:00 0.5 19 Noroeste 29 Noroeste 0 -- -- 80
2018-01-06 04:00:00 0.6 13 Noroeste 23 Noroeste 0 -- -- 80
2018-01-06 03:00:00 0.8 10 Noroeste 23 Noroeste 0 -- -- 80
2018-01-06 02:00:00 1.3 12 Noroeste 25 Noroeste 0 -- -- 79
2018-01-06 01:00:00 1.8 13 Noroeste 25 Noroeste 0 -- -- 82
2018-01-06 00:00:00 1.8 8 Noroeste 21 Noroeste 0 -- -- 77
2018-01-05 23:00:00 2 12 Noroeste 19 Noroeste 0 -- -- 80
2018-01-05 22:00:00 2.4 4 Norte 11 Noroeste 0 -- -- 81
2018-01-05 21:00:00 2.5 7 Noroeste 17 Oeste 0 -- -- 81
2018-01-05 20:00:00 3.2 12 Noroeste 29 Noroeste 0 -- -- 79
2018-01-05 19:00:00 3.5 14 Noroeste 26 Oeste 0 -- -- 77
2018-01-05 18:00:00 3.9 10 Noroeste 31 Noroeste 0 -- -- 78
2018-01-05 17:00:00 5 14 Noroeste 34 Oeste 0 -- -- 76
2018-01-05 16:00:00 6.2 17 Oeste 40 Oeste 0 -- -- 72
2018-01-05 15:00:00 8.5 14 Oeste 27 Noroeste 0 -- -- 68
2018-01-05 14:00:00 6.4 15 Noroeste 25 Noroeste 0 -- -- 80
2018-01-05 13:00:00 7.9 11 Oeste 23 Oeste 0 -- -- 78
2018-01-05 12:00:00 6.4 14 Oeste 29 Oeste 0.2 -- -- 82
2018-01-05 11:00:00 5 4 Noroeste 13 Norte 0 -- -- 89
2018-01-05 10:00:00 4.1 4 Oeste 33 Noroeste 0 -- -- 91
2018-01-05 09:00:00 4.7 15 Noroeste 32 Oeste 0 -- -- 87
2018-01-05 08:00:00 6.4 13 Noroeste 34 Sudoeste 1.4 -- -- 93
2018-01-05 07:00:00 7.2 8 Sur 35 Sur 0.2 -- -- 92
2018-01-05 06:00:00 6.9 24 Sudeste 44 Sur 0 -- -- 93
2018-01-05 05:00:00 7.6 24 Sur 37 Sur 0 -- -- 86
2018-01-05 04:00:00 8.2 21 Sudoeste 33 Sudoeste 0 -- -- 79
2018-01-05 03:00:00 7.2 13 Sudeste 21 Este 0 -- -- 88
2018-01-05 02:00:00 7.3 10 Sudeste 21 Sur 0 -- -- 88
2018-01-05 01:00:00 7.7 6 Oeste 12 Sudoeste 0 -- -- 84
2018-01-05 00:00:00 6.7 5 Norte 9 Este 0 -- -- 89
2018-01-04 23:00:00 7.1 5 Este 9 Este 0 -- -- 87
2018-01-04 22:00:00 8.3 0 Calma 5 Oeste 0 -- -- 81
2018-01-04 21:00:00 8.4 3 Sudoeste 26 Sur 0 -- -- 81
2018-01-04 20:00:00 9.4 9 Sudoeste 15 Sudoeste 0 -- -- 73
2018-01-04 19:00:00 9.4 9 Oeste 24 Oeste 0 -- -- 74
2018-01-04 18:00:00 9.7 14 Noroeste 32 Noroeste 0 -- -- 76
2018-01-04 17:00:00 10.8 15 Noroeste 33 Oeste 0 -- -- 76
2018-01-04 16:00:00 11.2 12 Oeste 34 Noroeste 0 -- -- 75
2018-01-04 15:00:00 12.6 16 Noroeste 30 Oeste 0 -- -- 65
2018-01-04 14:00:00 14.1 14 Noroeste 37 Noroeste 0 -- -- 59
2018-01-04 13:00:00 14.3 28 Oeste 45 Oeste 0 -- -- 56
2018-01-04 12:00:00 12.4 22 Oeste 45 Oeste 0 -- -- 61
2018-01-04 11:00:00 12.1 18 Oeste 43 Oeste 0 -- -- 65
2018-01-04 10:00:00 11.4 24 Oeste 45 Noroeste 0 -- -- 63
2018-01-04 09:00:00 9.8 22 Oeste 42 Oeste 0 -- -- 70
2018-01-04 08:00:00 9.9 26 Noroeste 47 Oeste 0 -- -- 71
2018-01-04 07:00:00 9.8 23 Oeste 50 Oeste 0 -- -- 72
2018-01-04 06:00:00 10.5 27 Oeste 40 Oeste 0 -- -- 75
2018-01-04 05:00:00 10.9 18 Oeste 35 Oeste 0 -- -- 77
2018-01-04 04:00:00 11.5 17 Oeste 26 Sudoeste 0 -- -- 76
2018-01-04 03:00:00 11.5 16 Oeste 26 Sudoeste 0 -- -- 79
2018-01-04 02:00:00 11.3 16 Sudoeste 24 Sudoeste 0 -- -- 81
2018-01-04 01:00:00 11.6 11 Oeste 27 Oeste 0 -- -- 79
2018-01-04 00:00:00 11.5 13 Oeste 27 Oeste 0 -- -- 81
2018-01-03 23:00:00 11.6 14 Oeste 27 Sudoeste 0 -- -- 80
2018-01-03 22:00:00 11.8 9 Oeste 27 Oeste 0 -- -- 84
2018-01-03 21:00:00 11.3 9 Oeste 36 Oeste 0 -- -- 86
2018-01-03 20:00:00 11.6 18 Noroeste 41 Noroeste 0 -- -- 86
2018-01-03 19:00:00 12.1 22 Noroeste 42 Noroeste 0 -- -- 83
2018-01-03 18:00:00 12.8 22 Oeste 42 Oeste 0 -- -- 79
2018-01-03 17:00:00 14.6 19 Noroeste 37 Oeste 0 -- -- 73
2018-01-03 16:00:00 15.4 20 Noroeste 37 Oeste 0 -- -- 73
2018-01-03 15:00:00 15.9 16 Noroeste 32 Oeste 0 -- -- 73
2018-01-03 14:00:00 15.5 19 Noroeste 32 Oeste 0 -- -- 74
2018-01-03 13:00:00 14.5 19 Oeste 34 Oeste 0 -- -- 78
2018-01-03 12:00:00 13.7 14 Oeste 33 Oeste 0 -- -- 82
2018-01-03 11:00:00 13.7 21 Oeste 36 Sudoeste 0 -- -- 80
2018-01-03 10:00:00 12.2 12 Oeste 22 Oeste 0 -- -- 86
2018-01-03 09:00:00 11.2 10 Oeste 26 Oeste 0 -- -- 89
2018-01-03 08:00:00 11.9 15 Oeste 27 Noroeste 0 -- -- 86
2018-01-03 07:00:00 11.5 6 Oeste 27 Oeste 0 -- -- 86
2018-01-03 06:00:00 12 18 Oeste 30 Sudoeste 0 -- -- 85
2018-01-03 05:00:00 12.1 16 Sudoeste 43 Oeste 0 -- -- 85
2018-01-03 04:00:00 12.4 20 Oeste 39 Oeste 0 -- -- 84
2018-01-03 03:00:00 12.3 17 Oeste 39 Oeste 0 -- -- 84
2018-01-03 02:00:00 12.5 20 Oeste 36 Sudoeste 0 -- -- 83
2018-01-03 01:00:00 12.4 13 Sudoeste 34 Oeste 0 -- -- 82
2018-01-03 00:00:00 12.6 19 Oeste 36 Oeste 0 -- -- 81
2018-01-02 23:00:00 12.3 15 Oeste 39 Oeste 0 -- -- 85
2018-01-02 22:00:00 12.4 19 Oeste 37 Oeste 0 -- -- 85
2018-01-02 21:00:00 12.4 16 Oeste 35 Oeste 0 -- -- 85
2018-01-02 20:00:00 12.4 15 Oeste 34 Oeste 0 -- -- 86
2018-01-02 19:00:00 12.2 12 Oeste 31 Noroeste 0 -- -- 86
2018-01-02 18:00:00 12.2 14 Oeste 30 Oeste 0 -- -- 88
2018-01-02 17:00:00 12.6 13 Oeste 32 Oeste 0 -- -- 86
2018-01-02 16:00:00 13.4 15 Oeste 26 Oeste 0 -- -- 81
2018-01-02 15:00:00 12.9 10 Oeste 17 Oeste 0.2 -- -- 86
2018-01-02 14:00:00 10.8 3 Sudeste 10 Sudeste 0 -- -- 91
2018-01-02 13:00:00 9.6 5 Sudeste 12 Este 0.4 -- -- 94
2018-01-02 12:00:00 8.2 8 Sudeste 15 Sudeste 0.2 -- -- 95
2018-01-02 11:00:00 8 7 Este 13 Este 0.2 -- -- 92
2018-01-02 10:00:00 7 6 Sudeste 13 Sudeste 0 -- -- 90
2018-01-02 09:00:00 6.5 2 Sudeste 18 Noroeste 0 -- -- 89
2018-01-02 08:00:00 7.5 13 Noroeste 22 Oeste 0 -- -- 91
2018-01-02 07:00:00 6.9 10 Oeste 17 Noroeste 0.2 -- -- 94
2018-01-02 06:00:00 7.2 7 Oeste 29 Oeste 0 -- -- 90
2018-01-02 05:00:00 7.7 13 Oeste 32 Oeste 0 -- -- 83
2018-01-02 04:00:00 7.1 17 Oeste 28 Oeste 0.2 -- -- 89
2018-01-02 03:00:00 7.6 13 Oeste 32 Oeste 0 -- -- 85
2018-01-02 02:00:00 8.2 17 Oeste 37 Oeste 0 -- -- 77
2018-01-02 01:00:00 8.4 17 Oeste 41 Oeste 0 -- -- 75
2018-01-02 00:00:00 8.5 22 Oeste 44 Oeste 0 -- -- 73
2018-01-01 23:00:00 8.9 14 Oeste 33 Oeste 0 -- -- 77
2018-01-01 22:00:00 8.9 15 Oeste 30 Oeste 0 -- -- 83
2018-01-01 21:00:00 8.5 18 Oeste 36 Oeste 0 -- -- 87
2018-01-01 20:00:00 8.6 20 Sudoeste 40 Oeste 0 -- -- 84
2018-01-01 19:00:00 8.6 17 Sudoeste 40 Noroeste 0 -- -- 80
2018-01-01 18:00:00 8.7 24 Noroeste 67 Noroeste 0 -- -- 76
2018-01-01 17:00:00 9.4 27 Noroeste 60 Noroeste 0 -- -- 72
2018-01-01 16:00:00 10.5 30 Noroeste 62 Noroeste 0 -- -- 74
2018-01-01 15:00:00 10.6 35 Noroeste 75 Oeste 0 -- -- 75
2018-01-01 14:00:00 11.1 37 Oeste 75 Noroeste 0 -- -- 69
2018-01-01 13:00:00 10.4 44 Oeste 79 Oeste 0 -- -- 69
2018-01-01 12:00:00 10 35 Oeste 66 Oeste 0 -- -- 68
2018-01-01 11:00:00 7.9 17 Sudoeste 30 Oeste 0 -- -- 71
2018-01-01 10:00:00 7.9 15 Sudoeste 32 Sudoeste 0 -- -- 68
2018-01-01 09:00:00 6.3 15 Sudoeste 44 Sudoeste 0 -- -- 72
2018-01-01 08:00:00 6.5 19 Sudoeste 40 Sudoeste 0 -- -- 70
2018-01-01 07:00:00 5.9 17 Sudoeste 43 Oeste 0 -- -- 68
2018-01-01 06:00:00 5.2 19 Oeste 51 Oeste 0 -- -- 74
2018-01-01 05:00:00 5.3 25 Oeste 40 Oeste 0 -- -- 67
2018-01-01 04:00:00 4.9 18 Oeste 29 Sudoeste 0 -- -- 70
2018-01-01 03:00:00 4.8 14 Sudoeste 32 Sur 0 -- -- 74
2018-01-01 02:00:00 4.2 17 Sur 27 Sur 0 -- -- 75
2018-01-01 01:00:00 4 14 Oeste 37 Noroeste 0 -- -- 78
2018-01-01 00:00:00 3.7 17 Oeste 32 Oeste 0 -- -- 80
2017-12-31 23:00:00 3.5 20 Oeste 34 Noroeste 0 -- -- 78
2017-12-31 22:00:00 3.4 20 Oeste 38 Noroeste 0 -- -- 78
2017-12-31 21:00:00 3.4 17 Noroeste 41 Noroeste 0 -- -- 79
2017-12-31 20:00:00 3.4 14 Oeste 38 Noroeste 0 -- -- 78
2017-12-31 19:00:00 2.7 20 Noroeste 44 Noroeste 0 -- -- 79
2017-12-31 18:00:00 2.3 21 Noroeste 53 Noroeste 0.6 -- -- 81
2017-12-31 17:00:00 4.1 24 Noroeste 47 Oeste 0.6 -- -- 87
2017-12-31 16:00:00 4.3 21 Noroeste 41 Oeste 0.2 -- -- 89
2017-12-31 15:00:00 4.7 13 Noroeste 41 Oeste 0.6 -- -- 89
2017-12-31 14:00:00 5.4 15 Oeste 51 Noroeste 0 -- -- 87
2017-12-31 13:00:00 7.7 14 Oeste 40 Noroeste 1.2 -- -- 89
2017-12-31 12:00:00 7.9 10 Sudoeste 17 Sudoeste 0 -- -- 87
2017-12-31 11:00:00 9 5 Este 19 Sudeste 0 -- -- 89
2017-12-31 10:00:00 3.2 6 Este 13 Norte 0 -- -- 100
2017-12-31 09:00:00 1.9 11 Norte 13 Norte 0 -- -- 100
2017-12-31 08:00:00 1.7 7 Norte 12 Sudoeste 0 -- -- 99
2017-12-31 07:00:00 2.1 9 Norte 16 Norte 0 -- -- 99
2017-12-31 06:00:00 2.4 8 Norte 10 Norte 0 -- -- 99
2017-12-31 05:00:00 1.8 5 Norte 14 Norte 0 -- -- 98
2017-12-31 04:00:00 1.9 12 Norte 18 Norte 0 -- -- 98
2017-12-31 03:00:00 2.6 5 Nordeste 14 Norte 0 -- -- 97
2017-12-31 02:00:00 2.4 14 Norte 18 Norte 0 -- -- 98
2017-12-31 01:00:00 3.5 2 Este 12 Norte 0 -- -- 94